createdAt,value
2018-04-15T00:00:29.811Z,0.00
2018-04-15T00:01:29.749Z,0.00
2018-04-15T00:02:29.685Z,0.00
2018-04-15T00:03:29.627Z,0.00
2018-04-15T00:04:29.559Z,0.00
2018-04-15T00:05:29.496Z,0.00
2018-04-15T00:06:29.432Z,0.00
2018-04-15T00:07:29.364Z,0.00
2018-04-15T00:08:29.303Z,0.00
2018-04-15T00:09:29.242Z,0.00
2018-04-15T00:10:29.174Z,0.00
2018-04-15T00:11:29.114Z,0.00
2018-04-15T00:12:29.058Z,0.00
2018-04-15T00:13:28.986Z,0.00
2018-04-15T00:14:28.924Z,0.00
2018-04-15T00:15:28.869Z,0.00
2018-04-15T00:16:28.798Z,0.00
2018-04-15T00:17:28.736Z,0.00
2018-04-15T00:18:28.670Z,0.00
2018-04-15T00:19:28.608Z,0.00
2018-04-15T00:20:28.536Z,0.00
2018-04-15T00:21:28.478Z,0.00
2018-04-15T00:22:28.418Z,0.00
2018-04-15T00:23:28.349Z,0.00
2018-04-15T00:24:28.291Z,0.00
2018-04-15T00:25:28.227Z,0.00
2018-04-15T00:26:28.159Z,0.00
2018-04-15T00:27:28.098Z,0.00
2018-04-15T00:28:28.036Z,0.00
2018-04-15T00:29:27.966Z,0.00
2018-04-15T00:30:27.909Z,0.00
2018-04-15T00:31:27.842Z,0.00
2018-04-15T00:32:27.774Z,0.00
2018-04-15T00:33:27.713Z,0.00
2018-04-15T00:34:27.653Z,0.00
2018-04-15T00:35:27.589Z,0.00
2018-04-15T00:36:27.527Z,0.00
2018-04-15T00:37:27.463Z,0.00
2018-04-15T00:38:27.401Z,0.00
2018-04-15T00:39:27.329Z,0.00
2018-04-15T00:40:27.270Z,0.00
2018-04-15T00:41:27.207Z,0.00
2018-04-15T00:42:27.142Z,0.00
2018-04-15T00:43:27.078Z,0.00
2018-04-15T00:44:27.015Z,0.00
2018-04-15T00:45:26.952Z,0.00
2018-04-15T00:46:26.884Z,0.00
2018-04-15T00:47:26.822Z,0.00
2018-04-15T00:48:26.789Z,0.00
2018-04-15T00:49:34.335Z,0.00
2018-04-15T00:51:20.988Z,0.00
2018-04-15T00:52:29.513Z,0.00
2018-04-15T00:54:15.193Z,0.00
2018-04-15T00:55:15.097Z,0.00
2018-04-15T00:57:09.389Z,0.00
2018-04-15T00:58:09.293Z,0.00
2018-04-15T01:00:03.704Z,0.00
2018-04-15T01:01:03.491Z,0.00
2018-04-15T01:02:56.795Z,0.00
2018-04-15T01:03:56.692Z,0.00
2018-04-15T01:05:50.988Z,0.00
2018-04-15T01:06:50.886Z,0.00
2018-04-15T01:08:45.188Z,0.00
2018-04-15T01:09:45.092Z,0.00
2018-04-15T01:11:39.509Z,0.00
2018-04-15T01:12:39.294Z,0.00
2018-04-15T01:14:33.704Z,0.00
2018-04-15T01:15:33.487Z,0.00
2018-04-15T01:17:27.974Z,0.00
2018-04-15T01:18:27.872Z,0.00
2018-04-15T01:20:21.183Z,0.00
2018-04-15T01:21:21.087Z,0.00
2018-04-15T01:23:15.377Z,0.00
2018-04-15T01:24:15.280Z,0.00
2018-04-15T01:26:08.691Z,0.00
2018-04-15T01:27:08.482Z,0.00
2018-04-15T01:29:01.791Z,0.00
2018-04-15T01:30:01.694Z,0.00
2018-04-15T01:31:55.001Z,0.00
2018-04-15T01:32:54.910Z,0.00
2018-04-15T01:34:48.206Z,0.00
2018-04-15T01:35:48.110Z,0.00
2018-04-15T01:37:41.425Z,0.00
2018-04-15T01:38:41.324Z,0.00
2018-04-15T01:40:35.625Z,0.00
2018-04-15T01:41:35.523Z,0.00
2018-04-15T01:42:35.455Z,0.00
2018-04-15T01:43:35.390Z,0.00
2018-04-15T01:44:35.323Z,0.00
2018-04-15T01:45:35.265Z,0.00
2018-04-15T01:46:35.194Z,0.00
2018-04-15T01:47:35.139Z,0.00
2018-04-15T01:48:35.071Z,0.00
2018-04-15T01:49:35.013Z,0.00
2018-04-15T01:50:34.938Z,0.00
2018-04-15T01:51:34.881Z,0.00
2018-04-15T01:52:34.814Z,0.00
2018-04-15T01:53:34.744Z,0.00
2018-04-15T01:54:34.686Z,0.00
2018-04-15T01:55:34.629Z,0.00
2018-04-15T01:56:34.555Z,0.00
2018-04-15T01:57:34.488Z,0.00
2018-04-15T01:58:34.425Z,0.00
2018-04-15T01:59:34.362Z,0.00
2018-04-15T02:00:34.299Z,0.00
2018-04-15T02:01:34.234Z,0.00
2018-04-15T02:02:34.170Z,0.00
2018-04-15T02:03:34.116Z,0.00
2018-04-15T02:04:34.042Z,0.00
2018-04-15T02:05:33.976Z,0.00
2018-04-15T02:06:33.912Z,0.00
2018-04-15T02:07:33.848Z,0.00
2018-04-15T02:08:33.784Z,0.00
2018-04-15T02:09:33.724Z,0.00
2018-04-15T02:10:33.658Z,0.00
2018-04-15T02:11:33.594Z,0.00
2018-04-15T02:12:33.534Z,0.00
2018-04-15T02:13:33.466Z,0.00
2018-04-15T02:14:33.400Z,0.00
2018-04-15T02:15:33.337Z,0.00
2018-04-15T02:16:33.274Z,0.00
2018-04-15T02:17:33.212Z,0.00
2018-04-15T02:18:33.144Z,0.00
2018-04-15T02:19:33.080Z,0.00
2018-04-15T02:20:33.019Z,0.00
2018-04-15T02:21:32.949Z,0.00
2018-04-15T02:22:32.893Z,0.00
2018-04-15T02:23:32.835Z,0.00
2018-04-15T02:24:32.756Z,0.00
2018-04-15T02:25:32.694Z,0.00
2018-04-15T02:26:32.631Z,0.00
2018-04-15T02:27:32.567Z,0.00
2018-04-15T02:28:32.502Z,0.00
2018-04-15T02:29:32.436Z,0.00
2018-04-15T02:30:32.372Z,0.00
2018-04-15T02:31:32.309Z,0.00
2018-04-15T02:32:32.250Z,0.00
2018-04-15T02:33:32.181Z,0.00
2018-04-15T02:34:32.117Z,0.00
2018-04-15T02:35:32.052Z,0.00
2018-04-15T02:36:31.986Z,0.00
2018-04-15T02:37:31.917Z,0.00
2018-04-15T02:38:31.857Z,0.00
2018-04-15T02:39:31.794Z,0.00
2018-04-15T02:40:31.731Z,0.00
2018-04-15T02:41:31.669Z,0.00
2018-04-15T02:42:31.601Z,0.00
2018-04-15T02:43:31.534Z,0.00
2018-04-15T02:44:31.475Z,0.00
2018-04-15T02:45:31.412Z,0.00
2018-04-15T02:46:31.345Z,0.00
2018-04-15T02:47:31.285Z,0.00
2018-04-15T02:48:31.220Z,0.00
2018-04-15T02:49:31.146Z,0.00
2018-04-15T02:50:31.089Z,0.00
2018-04-15T02:51:31.027Z,0.00
2018-04-15T02:52:30.957Z,0.00
2018-04-15T02:53:30.896Z,0.00
2018-04-15T02:54:30.836Z,0.00
2018-04-15T02:55:30.767Z,0.00
2018-04-15T02:56:30.709Z,0.00
2018-04-15T02:57:30.638Z,0.00
2018-04-15T02:58:30.573Z,0.00
2018-04-15T02:59:30.517Z,0.00
2018-04-15T03:00:30.446Z,0.00
2018-04-15T03:01:30.381Z,0.00
2018-04-15T03:02:30.317Z,0.00
2018-04-15T03:03:30.258Z,0.00
2018-04-15T03:04:30.194Z,0.00
2018-04-15T03:05:30.129Z,0.00
2018-04-15T03:06:30.062Z,0.00
2018-04-15T03:07:29.995Z,0.00
2018-04-15T03:08:29.935Z,0.00
2018-04-15T03:09:29.867Z,0.00
2018-04-15T03:10:29.808Z,0.00
2018-04-15T03:11:29.739Z,0.00
2018-04-15T03:12:29.676Z,0.00
2018-04-15T03:13:29.613Z,0.00
2018-04-15T03:14:29.548Z,0.00
2018-04-15T03:15:29.481Z,0.00
2018-04-15T03:16:29.419Z,0.00
2018-04-15T03:17:29.368Z,0.00
2018-04-15T03:18:29.298Z,0.00
2018-04-15T03:19:29.230Z,0.00
2018-04-15T03:20:29.160Z,0.00
2018-04-15T03:21:29.093Z,0.00
2018-04-15T03:22:29.031Z,0.00
2018-04-15T03:23:28.963Z,0.00
2018-04-15T03:24:28.904Z,0.00
2018-04-15T03:25:28.850Z,0.00
2018-04-15T03:26:28.776Z,0.00
2018-04-15T03:27:28.712Z,0.00
2018-04-15T03:28:28.652Z,0.00
2018-04-15T03:29:28.581Z,0.00
2018-04-15T03:30:28.516Z,0.00
2018-04-15T03:31:28.453Z,0.00
2018-04-15T03:32:28.390Z,0.00
2018-04-15T03:33:28.324Z,0.00
2018-04-15T03:34:28.259Z,0.00
2018-04-15T03:35:28.196Z,0.00
2018-04-15T03:36:28.135Z,0.00
2018-04-15T03:37:28.069Z,0.00
2018-04-15T03:38:28.004Z,0.00
2018-04-15T03:39:27.939Z,0.00
2018-04-15T03:40:27.870Z,0.00
2018-04-15T03:41:27.811Z,4.00
2018-04-15T03:42:27.749Z,4.00
2018-04-15T03:43:27.686Z,4.00
2018-04-15T03:44:27.619Z,4.00
2018-04-15T03:45:27.560Z,4.00
2018-04-15T03:46:27.489Z,8.00
2018-04-15T03:47:27.422Z,4.00
2018-04-15T03:48:27.362Z,8.00
2018-04-15T03:49:27.308Z,8.00
2018-04-15T03:50:27.246Z,8.00
2018-04-15T03:51:27.164Z,12.00
2018-04-15T03:52:27.102Z,16.00
2018-04-15T03:53:27.042Z,16.00
2018-04-15T03:54:26.970Z,20.00
2018-04-15T03:55:26.910Z,20.00
2018-04-15T03:56:26.852Z,20.00
2018-04-15T03:57:26.782Z,24.00
2018-04-15T03:58:26.724Z,28.00
2018-04-15T03:59:26.655Z,32.00
2018-04-15T04:00:26.589Z,36.00
2018-04-15T04:01:26.527Z,40.00
2018-04-15T04:02:26.463Z,44.00
2018-04-15T04:03:26.394Z,52.00
2018-04-15T04:04:26.331Z,56.00
2018-04-15T04:05:26.268Z,60.00
2018-04-15T04:06:26.210Z,68.00
2018-04-15T04:07:26.138Z,76.00
2018-04-15T04:08:26.077Z,84.00
2018-04-15T04:09:26.044Z,92.00
2018-04-15T04:10:25.948Z,100.00
2018-04-15T04:11:25.883Z,112.00
2018-04-15T04:12:25.820Z,124.00
2018-04-15T04:13:25.755Z,136.00
2018-04-15T04:14:25.685Z,148.00
2018-04-15T04:15:25.627Z,164.00
2018-04-15T04:16:25.562Z,180.00
2018-04-15T04:17:25.501Z,196.00
2018-04-15T04:18:25.428Z,216.00
2018-04-15T04:19:25.366Z,236.00
2018-04-15T04:20:25.359Z,256.00
2018-04-15T04:21:25.240Z,284.00
2018-04-15T04:22:25.173Z,304.00
2018-04-15T04:23:25.111Z,328.00
2018-04-15T04:24:25.054Z,356.00
2018-04-15T04:25:24.979Z,384.00
2018-04-15T04:26:24.924Z,416.00
2018-04-15T04:27:24.850Z,448.00
2018-04-15T04:28:24.790Z,472.00
2018-04-15T04:29:24.735Z,500.00
2018-04-15T04:30:24.662Z,536.00
2018-04-15T04:31:24.596Z,564.00
2018-04-15T04:32:24.532Z,604.00
2018-04-15T04:33:24.470Z,648.00
2018-04-15T04:34:24.405Z,692.00
2018-04-15T04:35:24.341Z,736.00
2018-04-15T04:36:24.274Z,792.00
2018-04-15T04:37:24.206Z,848.00
2018-04-15T04:38:24.148Z,896.00
2018-04-15T04:39:24.089Z,944.00
2018-04-15T04:40:24.018Z,992.00
2018-04-15T04:41:23.955Z,1036.00
2018-04-15T04:42:23.891Z,1084.00
2018-04-15T04:43:23.826Z,1124.00
2018-04-15T04:44:23.763Z,1172.00
2018-04-15T04:45:23.698Z,1228.00
2018-04-15T04:46:23.638Z,1280.00
2018-04-15T04:47:23.562Z,1324.00
2018-04-15T04:48:23.515Z,1376.00
2018-04-15T04:49:23.444Z,1436.00
2018-04-15T04:50:23.368Z,1468.00
2018-04-15T04:51:23.313Z,1500.00
2018-04-15T04:52:23.248Z,1544.00
2018-04-15T04:53:23.180Z,1592.00
2018-04-15T04:54:23.117Z,1636.00
2018-04-15T04:55:23.078Z,1692.00
2018-04-15T04:56:22.982Z,1756.00
2018-04-15T04:57:22.934Z,1820.00
2018-04-15T04:58:22.870Z,1860.00
2018-04-15T04:59:22.794Z,1912.00
2018-04-15T05:00:22.729Z,1988.00
2018-04-15T05:01:22.671Z,2040.00
2018-04-15T05:02:22.603Z,2068.00
2018-04-15T05:03:22.540Z,2100.00
2018-04-15T05:04:22.474Z,2136.00
2018-04-15T05:05:22.409Z,2172.00
2018-04-15T05:06:22.347Z,2232.00
2018-04-15T05:07:22.283Z,2308.00
2018-04-15T05:08:22.216Z,2424.00
2018-04-15T05:09:22.151Z,2520.00
2018-04-15T05:10:22.087Z,2568.00
2018-04-15T05:11:22.024Z,2612.00
2018-04-15T05:12:21.964Z,2676.00
2018-04-15T05:13:21.899Z,2728.00
2018-04-15T05:14:21.832Z,2808.00
2018-04-15T05:15:21.772Z,2912.00
2018-04-15T05:16:21.705Z,3036.00
2018-04-15T05:17:21.635Z,3160.00
2018-04-15T05:18:21.574Z,3248.00
2018-04-15T05:19:21.511Z,3272.00
2018-04-15T05:20:21.451Z,3292.00
2018-04-15T05:21:21.384Z,3340.00
2018-04-15T05:22:21.317Z,3400.00
2018-04-15T05:23:21.258Z,3392.00
2018-04-15T05:24:21.236Z,3432.00
2018-04-15T05:25:21.128Z,3556.00
2018-04-15T05:26:21.067Z,3712.00
2018-04-15T05:27:20.997Z,3848.00
2018-04-15T05:28:20.933Z,3932.00
2018-04-15T05:29:20.876Z,3980.00
2018-04-15T05:30:20.803Z,4024.00
2018-04-15T05:31:20.741Z,4108.00
2018-04-15T05:32:20.681Z,4144.00
2018-04-15T05:33:20.616Z,4208.00
2018-04-15T05:34:20.556Z,4280.00
2018-04-15T05:35:20.491Z,4296.00
2018-04-15T05:36:20.418Z,4304.00
2018-04-15T05:37:20.359Z,4320.00
2018-04-15T05:38:20.296Z,4356.00
2018-04-15T05:39:20.232Z,4456.00
2018-04-15T05:40:20.161Z,4516.00
2018-04-15T05:41:20.104Z,4520.00
2018-04-15T05:42:20.038Z,4464.00
2018-04-15T05:43:19.975Z,4404.00
2018-04-15T05:44:19.916Z,4388.00
2018-04-15T05:45:19.856Z,4392.00
2018-04-15T05:46:19.786Z,4444.00
2018-04-15T05:47:19.723Z,4648.00
2018-04-15T05:48:19.661Z,4952.00
2018-04-15T05:49:19.602Z,5208.00
2018-04-15T05:50:19.545Z,5332.00
2018-04-15T05:51:19.468Z,5672.00
2018-04-15T05:52:19.403Z,5644.00
2018-04-15T05:53:19.339Z,5796.00
2018-04-15T05:54:19.279Z,6288.00
2018-04-15T05:55:19.219Z,6632.00
2018-04-15T05:56:19.151Z,6816.00
2018-04-15T05:57:19.085Z,6952.00
2018-04-15T05:58:19.025Z,7036.00
2018-04-15T05:59:18.963Z,7036.00
2018-04-15T06:00:18.898Z,7172.00
2018-04-15T06:01:18.840Z,7268.00
2018-04-15T06:02:18.773Z,7564.00
2018-04-15T06:03:18.707Z,7704.00
2018-04-15T06:04:18.642Z,7588.00
2018-04-15T06:05:18.614Z,7504.00
2018-04-15T06:06:18.516Z,7456.00
2018-04-15T06:07:18.451Z,7588.00
2018-04-15T06:08:18.390Z,7764.00
2018-04-15T06:09:18.327Z,7424.00
2018-04-15T06:10:18.269Z,7220.00
2018-04-15T06:11:18.199Z,7176.00
2018-04-15T06:12:18.138Z,7184.00
2018-04-15T06:13:18.079Z,7236.00
2018-04-15T06:14:18.012Z,7236.00
2018-04-15T06:15:17.949Z,7288.00
2018-04-15T06:16:17.887Z,7364.00
2018-04-15T06:17:17.824Z,7472.00
2018-04-15T06:18:17.783Z,7496.00
2018-04-15T06:19:17.700Z,7476.00
2018-04-15T06:20:17.632Z,7428.00
2018-04-15T06:21:17.581Z,7424.00
2018-04-15T06:22:17.511Z,7544.00
2018-04-15T06:23:17.446Z,7656.00
2018-04-15T06:24:17.386Z,7720.00
2018-04-15T06:25:17.323Z,7792.00
2018-04-15T06:26:17.257Z,7916.00
2018-04-15T06:27:17.196Z,7960.00
2018-04-15T06:28:17.132Z,7824.00
2018-04-15T06:29:17.067Z,7684.00
2018-04-15T06:30:17.005Z,7672.00
2018-04-15T06:31:16.942Z,7296.00
2018-04-15T06:32:16.879Z,6952.00
2018-04-15T06:33:16.822Z,6600.00
2018-04-15T06:34:16.759Z,6392.00
2018-04-15T06:35:16.694Z,6280.00
2018-04-15T06:36:16.636Z,6328.00
2018-04-15T06:37:16.575Z,6592.00
2018-04-15T06:38:16.504Z,6548.00
2018-04-15T06:39:16.445Z,6780.00
2018-04-15T06:40:16.380Z,7044.00
2018-04-15T06:41:16.317Z,7612.00
2018-04-15T06:42:16.261Z,8164.00
2018-04-15T06:43:16.188Z,8688.00
2018-04-15T06:44:16.127Z,9196.00
2018-04-15T06:45:16.136Z,9524.00
2018-04-15T06:46:16.007Z,9704.00
2018-04-15T06:47:15.941Z,9824.00
2018-04-15T06:48:15.876Z,9784.00
2018-04-15T06:49:15.864Z,9984.00
2018-04-15T06:50:15.752Z,9984.00
2018-04-15T06:51:15.691Z,10052.00
2018-04-15T06:52:15.633Z,10156.00
2018-04-15T06:53:15.573Z,10200.00
2018-04-15T06:54:15.501Z,10232.00
2018-04-15T06:55:15.441Z,10316.00
2018-04-15T06:56:15.384Z,10312.00
2018-04-15T06:57:15.313Z,10224.00
2018-04-15T06:58:15.261Z,10064.00
2018-04-15T06:59:15.193Z,9956.00
2018-04-15T07:00:15.128Z,9972.00
2018-04-15T07:01:15.067Z,10032.00
2018-04-15T07:02:15.027Z,10076.00
2018-04-15T07:03:14.943Z,10160.00
2018-04-15T07:04:14.887Z,10128.00
2018-04-15T07:05:14.822Z,10044.00
2018-04-15T07:06:14.769Z,9948.00
2018-04-15T07:07:14.706Z,9856.00
2018-04-15T07:08:14.635Z,9812.00
2018-04-15T07:09:14.574Z,9760.00
2018-04-15T07:10:14.510Z,9688.00
2018-04-15T07:11:14.445Z,9640.00
2018-04-15T07:12:14.387Z,9548.00
2018-04-15T07:13:14.327Z,9508.00
2018-04-15T07:14:14.263Z,9468.00
2018-04-15T07:15:14.207Z,9412.00
2018-04-15T07:16:14.143Z,9404.00
2018-04-15T07:17:14.081Z,9324.00
2018-04-15T07:18:14.020Z,9080.00
2018-04-15T07:19:13.958Z,8784.00
2018-04-15T07:20:13.893Z,8536.00
2018-04-15T07:21:13.833Z,8276.00
2018-04-15T07:22:13.781Z,8056.00
2018-04-15T07:23:13.707Z,7884.00
2018-04-15T07:24:13.651Z,7864.00
2018-04-15T07:25:13.589Z,7804.00
2018-04-15T07:26:13.526Z,7768.00
2018-04-15T07:27:13.470Z,7684.00
2018-04-15T07:28:13.403Z,7780.00
2018-04-15T07:29:13.343Z,7888.00
2018-04-15T07:30:13.279Z,8036.00
2018-04-15T07:31:13.217Z,8364.00
2018-04-15T07:32:13.157Z,8724.00
2018-04-15T07:33:13.093Z,9076.00
2018-04-15T07:34:13.028Z,9484.00
2018-04-15T07:35:12.970Z,9592.00
2018-04-15T07:36:12.911Z,9500.00
2018-04-15T07:37:12.850Z,9300.00
2018-04-15T07:38:12.787Z,8864.00
2018-04-15T07:39:12.726Z,8292.00
2018-04-15T07:40:12.663Z,7784.00
2018-04-15T07:41:12.603Z,7232.00
2018-04-15T07:42:12.540Z,6732.00
2018-04-15T07:43:12.475Z,6532.00
2018-04-15T07:44:12.420Z,6272.00
2018-04-15T07:45:12.358Z,6260.00
2018-04-15T07:46:12.294Z,6212.00
2018-04-15T07:47:12.234Z,6116.00
2018-04-15T07:48:12.177Z,5888.00
2018-04-15T07:49:12.118Z,5868.00
2018-04-15T07:50:12.054Z,6232.00
2018-04-15T07:51:12.038Z,6448.00
2018-04-15T07:52:11.928Z,6672.00
2018-04-15T07:53:11.866Z,6636.00
2018-04-15T07:54:11.804Z,6624.00
2018-04-15T07:55:11.746Z,6500.00
2018-04-15T07:56:11.712Z,6400.00
2018-04-15T07:57:11.622Z,6488.00
2018-04-15T07:58:11.560Z,6512.00
2018-04-15T07:59:11.501Z,6600.00
2018-04-15T08:00:11.438Z,6696.00
2018-04-15T08:01:11.375Z,6820.00
2018-04-15T08:02:11.321Z,6968.00
2018-04-15T08:03:11.252Z,6968.00
2018-04-15T08:04:11.193Z,7288.00
2018-04-15T08:05:11.132Z,7236.00
2018-04-15T08:06:11.063Z,7336.00
2018-04-15T08:07:11.012Z,7300.00
2018-04-15T08:08:10.947Z,7288.00
2018-04-15T08:09:10.893Z,7268.00
2018-04-15T08:10:10.825Z,7272.00
2018-04-15T08:11:10.762Z,7288.00
2018-04-15T08:12:10.702Z,7288.00
2018-04-15T08:13:10.641Z,7288.00
2018-04-15T08:14:10.577Z,7348.00
2018-04-15T08:15:10.518Z,7300.00
2018-04-15T08:16:10.459Z,7276.00
2018-04-15T08:17:10.402Z,7316.00
2018-04-15T08:18:10.331Z,7376.00
2018-04-15T08:19:10.292Z,7416.00
2018-04-15T08:20:10.217Z,7460.00
2018-04-15T08:21:10.153Z,7556.00
2018-04-15T08:22:10.097Z,7704.00
2018-04-15T08:23:10.032Z,7848.00
2018-04-15T08:24:09.968Z,8052.00
2018-04-15T08:25:09.924Z,8088.00
2018-04-15T08:26:14.789Z,8036.00
2018-04-15T08:30:37.707Z,7860.00
2018-04-15T08:31:37.015Z,7652.00
2018-04-15T08:33:31.320Z,7652.00
2018-04-15T08:34:31.220Z,7176.00
2018-04-15T08:36:24.659Z,6720.00
2018-04-15T08:37:24.431Z,6944.00
2018-04-15T08:39:18.732Z,7264.00
2018-04-15T08:40:18.644Z,7364.00
2018-04-15T08:42:13.051Z,7364.00
2018-04-15T08:43:12.875Z,7448.00
2018-04-15T08:45:07.164Z,7216.00
2018-04-15T08:46:07.070Z,7160.00
2018-04-15T08:48:00.479Z,6856.00
2018-04-15T08:49:00.296Z,6728.00
2018-04-15T08:50:54.702Z,6960.00
2018-04-15T08:51:54.506Z,7000.00
2018-04-15T08:53:49.412Z,7084.00
2018-04-15T08:54:48.724Z,7208.00
2018-04-15T08:56:43.019Z,7356.00
2018-04-15T08:57:42.926Z,7248.00
2018-04-15T08:59:36.847Z,7144.00
2018-04-15T09:00:36.218Z,6828.00
2018-04-15T09:02:30.554Z,7036.00
2018-04-15T09:03:30.357Z,7184.00
2018-04-15T09:05:23.673Z,7128.00
2018-04-15T09:06:23.608Z,7128.00
2018-04-15T09:08:16.992Z,7000.00
2018-04-15T09:09:16.831Z,7064.00
2018-04-15T09:11:11.153Z,7228.00
2018-04-15T09:12:11.055Z,7484.00
2018-04-15T09:14:04.571Z,7740.00
2018-04-15T09:15:04.488Z,7844.00
2018-04-15T09:16:58.897Z,7980.00
2018-04-15T09:17:58.695Z,8180.00
2018-04-15T09:19:53.608Z,8348.00
2018-04-15T09:20:52.944Z,8412.00
2018-04-15T09:22:47.238Z,8252.00
2018-04-15T09:23:47.167Z,8188.00
2018-04-15T09:24:47.086Z,8156.00
2018-04-15T09:25:47.029Z,8064.00
2018-04-15T09:26:46.976Z,7996.00
2018-04-15T09:27:46.904Z,7936.00
2018-04-15T09:28:46.849Z,7924.00
2018-04-15T09:29:46.789Z,7760.00
2018-04-15T09:30:46.733Z,7764.00
2018-04-15T09:31:46.667Z,7616.00
2018-04-15T09:32:46.608Z,7720.00
2018-04-15T09:33:46.548Z,7856.00
2018-04-15T09:34:46.492Z,7936.00
2018-04-15T09:35:46.431Z,7988.00
2018-04-15T09:36:46.370Z,7788.00
2018-04-15T09:37:46.311Z,7804.00
2018-04-15T09:38:46.247Z,7716.00
2018-04-15T09:39:46.199Z,7804.00
2018-04-15T09:40:46.142Z,7764.00
2018-04-15T09:41:46.097Z,7736.00
2018-04-15T09:42:46.012Z,7704.00
2018-04-15T09:43:45.956Z,7740.00
2018-04-15T09:44:45.905Z,7688.00
2018-04-15T09:45:45.834Z,7468.00
2018-04-15T09:46:45.780Z,7480.00
2018-04-15T09:47:45.715Z,7564.00
2018-04-15T09:48:45.661Z,7592.00
2018-04-15T09:49:45.605Z,7620.00
2018-04-15T09:50:45.535Z,7696.00
2018-04-15T09:51:45.479Z,7700.00
2018-04-15T09:52:45.421Z,7748.00
2018-04-15T09:53:45.359Z,7780.00
2018-04-15T09:54:45.299Z,7808.00
2018-04-15T09:55:45.242Z,7708.00
2018-04-15T09:56:45.178Z,7480.00
2018-04-15T09:57:45.122Z,7252.00
2018-04-15T09:58:45.068Z,7364.00
2018-04-15T09:59:45.000Z,7676.00
2018-04-15T10:00:44.945Z,7692.00
2018-04-15T10:01:44.889Z,7392.00
2018-04-15T10:02:44.828Z,7524.00
2018-04-15T10:03:44.776Z,7932.00
2018-04-15T10:04:44.710Z,7864.00
2018-04-15T10:05:44.648Z,8096.00
2018-04-15T10:06:44.591Z,8180.00
2018-04-15T10:07:44.530Z,8128.00
2018-04-15T10:08:44.480Z,8296.00
2018-04-15T10:09:44.416Z,8832.00
2018-04-15T10:10:44.352Z,8924.00
2018-04-15T10:11:44.293Z,8632.00
2018-04-15T10:12:44.239Z,8644.00
2018-04-15T10:13:44.189Z,8588.00
2018-04-15T10:14:44.117Z,8516.00
2018-04-15T10:15:44.063Z,7992.00
2018-04-15T10:16:44.039Z,8300.00
2018-04-15T10:17:43.936Z,7924.00
2018-04-15T10:18:43.881Z,8100.00
2018-04-15T10:19:43.823Z,8344.00
2018-04-15T10:20:43.767Z,8392.00
2018-04-15T10:21:43.703Z,8456.00
2018-04-15T10:22:43.646Z,8540.00
2018-04-15T10:23:43.582Z,8620.00
2018-04-15T10:24:43.528Z,8824.00
2018-04-15T10:25:43.467Z,8692.00
2018-04-15T10:26:43.409Z,8628.00
2018-04-15T10:27:43.349Z,8788.00
2018-04-15T10:28:43.302Z,8864.00
2018-04-15T10:29:43.231Z,8972.00
2018-04-15T10:30:43.169Z,9144.00
2018-04-15T10:31:43.113Z,9308.00
2018-04-15T10:32:43.080Z,9560.00
2018-04-15T10:33:43.002Z,9736.00
2018-04-15T10:34:42.946Z,10052.00
2018-04-15T10:35:42.881Z,10528.00
2018-04-15T10:36:42.825Z,10252.00
2018-04-15T10:37:42.757Z,9840.00
2018-04-15T10:38:42.746Z,9652.00
2018-04-15T10:39:42.641Z,9592.00
2018-04-15T10:40:42.588Z,9680.00
2018-04-15T10:41:42.528Z,9904.00
2018-04-15T10:42:42.469Z,9996.00
2018-04-15T10:43:42.412Z,10068.00
2018-04-15T10:44:42.359Z,10124.00
2018-04-15T10:45:42.292Z,10212.00
2018-04-15T10:46:42.243Z,10488.00
2018-04-15T10:47:42.178Z,10096.00
2018-04-15T10:48:42.117Z,10568.00
2018-04-15T10:49:42.059Z,10996.00
2018-04-15T10:50:42.001Z,10828.00
2018-04-15T10:51:41.942Z,10748.00
2018-04-15T10:52:41.887Z,10784.00
2018-04-15T10:53:41.827Z,10800.00
2018-04-15T10:54:41.830Z,10928.00
2018-04-15T10:55:41.716Z,11796.00
2018-04-15T10:56:41.654Z,12056.00
2018-04-15T10:57:41.596Z,12272.00
2018-04-15T10:58:41.537Z,12180.00
2018-04-15T10:59:41.480Z,11716.00
2018-04-15T11:00:41.437Z,11904.00
2018-04-15T11:01:41.396Z,12436.00
2018-04-15T11:02:41.308Z,12996.00
2018-04-15T11:03:41.247Z,13612.00
2018-04-15T11:04:41.192Z,14172.00
2018-04-15T11:05:41.135Z,13792.00
2018-04-15T11:06:41.078Z,13324.00
2018-04-15T11:07:41.021Z,15888.00
2018-04-15T11:08:40.983Z,27264.00
2018-04-15T11:09:40.904Z,72416.00
2018-04-15T11:10:40.856Z,89056.00
2018-04-15T11:11:40.794Z,88640.00
2018-04-15T11:12:40.736Z,79872.00
2018-04-15T11:13:40.684Z,83232.00
2018-04-15T11:14:40.626Z,83744.00
2018-04-15T11:15:40.571Z,72960.00
2018-04-15T11:16:40.521Z,89344.00
2018-04-15T11:17:40.523Z,101664.00
2018-04-15T11:18:40.414Z,92224.00
2018-04-15T11:19:40.359Z,68320.00
2018-04-15T11:20:40.306Z,84320.00
2018-04-15T11:21:40.239Z,90656.00
2018-04-15T11:22:40.187Z,95712.00
2018-04-15T11:23:40.141Z,92672.00
2018-04-15T11:24:40.082Z,75680.00
2018-04-15T11:25:40.033Z,80288.00
2018-04-15T11:26:39.973Z,70912.00
2018-04-15T11:27:39.923Z,97056.00
2018-04-15T11:28:39.871Z,98496.00
2018-04-15T11:29:39.822Z,81888.00
2018-04-15T11:30:39.768Z,72000.00
2018-04-15T11:31:39.713Z,70784.00
2018-04-15T11:32:39.658Z,68352.00
2018-04-15T11:33:39.612Z,103968.00
2018-04-15T11:34:39.557Z,101024.00
2018-04-15T11:35:39.506Z,89312.00
2018-04-15T11:36:39.491Z,79264.00
2018-04-15T11:37:39.409Z,95456.00
2018-04-15T11:38:39.361Z,97504.00
2018-04-15T11:39:39.306Z,96768.00
2018-04-15T11:40:39.255Z,97504.00
2018-04-15T11:41:39.197Z,101024.00
2018-04-15T11:42:39.156Z,100256.00
2018-04-15T11:43:39.103Z,94880.00
2018-04-15T11:44:39.053Z,89120.00
2018-04-15T11:45:39.005Z,81600.00
2018-04-15T11:46:38.959Z,78432.00
2018-04-15T11:47:38.912Z,94368.00
2018-04-15T11:48:38.870Z,97760.00
2018-04-15T11:49:38.820Z,93184.00
2018-04-15T11:50:38.772Z,93280.00
2018-04-15T11:51:38.771Z,92480.00
2018-04-15T11:52:38.675Z,90976.00
2018-04-15T11:53:38.627Z,89440.00
2018-04-15T11:54:38.580Z,86464.00
2018-04-15T11:55:38.535Z,82176.00
2018-04-15T11:56:38.491Z,89536.00
2018-04-15T11:57:38.443Z,92864.00
2018-04-15T11:58:38.395Z,88608.00
2018-04-15T11:59:38.347Z,94336.00
2018-04-15T12:00:38.305Z,91744.00
2018-04-15T12:01:38.262Z,88512.00
2018-04-15T12:02:38.218Z,95008.00
2018-04-15T12:03:38.171Z,94976.00
2018-04-15T12:04:38.125Z,79168.00
2018-04-15T12:05:38.080Z,91680.00
2018-04-15T12:06:38.040Z,81056.00
2018-04-15T12:07:37.994Z,83520.00
2018-04-15T12:08:37.950Z,89632.00
2018-04-15T12:09:37.908Z,86848.00
2018-04-15T12:10:37.862Z,81344.00
2018-04-15T12:11:37.813Z,91040.00
2018-04-15T12:12:37.774Z,94880.00
2018-04-15T12:13:37.720Z,72544.00
2018-04-15T12:14:37.686Z,91296.00
2018-04-15T12:15:37.641Z,85344.00
2018-04-15T12:16:37.593Z,75968.00
2018-04-15T12:17:37.549Z,72224.00
2018-04-15T12:18:37.519Z,78144.00
2018-04-15T12:19:37.464Z,92352.00
2018-04-15T12:20:37.424Z,86176.00
2018-04-15T12:21:37.382Z,77120.00
2018-04-15T12:22:37.331Z,80896.00
2018-04-15T12:23:37.292Z,79520.00
2018-04-15T12:24:37.245Z,80256.00
2018-04-15T12:25:37.201Z,78336.00
2018-04-15T12:26:37.152Z,83200.00
2018-04-15T12:27:37.116Z,89408.00
2018-04-15T12:28:37.072Z,85184.00
2018-04-15T12:29:37.037Z,86912.00
2018-04-15T12:30:36.982Z,86272.00
2018-04-15T12:31:36.934Z,75968.00
2018-04-15T12:32:36.899Z,77728.00
2018-04-15T12:33:36.861Z,68128.00
2018-04-15T12:34:36.809Z,80192.00
2018-04-15T12:35:36.827Z,84352.00
2018-04-15T12:36:36.721Z,68608.00
2018-04-15T12:37:36.692Z,74944.00
2018-04-15T12:38:36.643Z,58144.00
2018-04-15T12:39:36.603Z,68800.00
2018-04-15T12:40:36.549Z,63936.00
2018-04-15T12:41:36.524Z,74272.00
2018-04-15T12:42:36.463Z,65120.00
2018-04-15T12:43:36.426Z,59104.00
2018-04-15T12:44:36.376Z,54016.00
2018-04-15T12:45:36.324Z,56608.00
2018-04-15T12:46:36.286Z,64704.00
2018-04-15T12:47:36.242Z,68864.00
2018-04-15T12:48:36.195Z,65280.00
2018-04-15T12:49:36.147Z,54176.00
2018-04-15T12:50:36.103Z,60992.00
2018-04-15T12:51:36.058Z,42560.00
2018-04-15T12:52:36.016Z,49248.00
2018-04-15T12:53:35.994Z,64576.00
2018-04-15T12:54:35.924Z,51040.00
2018-04-15T12:55:35.879Z,51264.00
2018-04-15T12:56:35.828Z,48832.00
2018-04-15T12:57:35.783Z,37728.00